SBOSBO JSI / LGSK
Speedbird OnlineSpeedbird Online JSI / LGSK

Skiathos Island National Airport
19:35 31°C

Location Skiathos, Greece
Latitude: 39.177101135253906
Longitude: 23.503700256347656
Local Time 19:35 on 20 Jun 2024
UTC +3 hours (Europe/Athens)
Currency £1 equals EUR 1.18
METAR LGSK 201520Z 09004KT CAVOK 31/20 Q1013
TAF TAF LGSK 201400Z 2015/2024 02010KT CAVOK
Weather As Of 20 Jun 2024 18:55
Description Clear sky
Wind 7 km/h from East (90°)
Cloud Cover 0%
Precipitation Rain: none, Snow: none
Sunrise 05:59
Sunset 20:55
Web Wikipedia
Codes IATA: JSI
ICAO: LGSK
Altitude 16 Meter / 54 Feet
Distance 2,268 KM / 1,409 Miles
from London.
Runways
RunwayLength (m)Surface
011628Asphalt
191628Asphalt
Radio
TypeDescriptionFrequency
A/GSKIATHOS RDO563.7
APPSKIATHOS APP126.05
TWRSKIATHOS TWR126.05
Live ATC



Support Speedbird Online

© 2017-2024 Speedbird Online